Meteo Giornale » Osservazioni meteo Stati Uniti (USA) » Corona

ore: 11:56 - Osservazioni Meteo Corona
Lat. 33° 54' N Lon. 117° 36' W Alt. 163 metri s.l.m.

sereno

0 °C

Sereno

Temp. 24 Ore

0 °C

31 °C

Nord

0 Km/h

Dew point 0 °C

Umidità 32 %

Visibilità  10 Km

Il sole sorge alle ore 06:24

Il sole tramonta alle ore 19:16

Data e Ora Cielo e Fenomeni T °C DP °C Um. % Pres. hPa Vis. km Vento km/h
Oggi h: 11:56 sereno Sereno 0 0 32 1015 10 N 0
Oggi h: 10:56 sereno Sereno 27 16 50 0 10 N 0
Oggi h: 09:56 sereno Sereno 24 17 64 1016 10 N 0
Oggi h: 08:56 sereno Sereno 22 17 73 1016 14 N 0
Oggi h: 07:56 sereno Sereno 18 16 88 1016 14 O 7.4
Oggi h: 06:56 sereno Sereno 16 15 93 1015 13 N 5.5
Oggi h: 05:56 sereno Sereno 14 13 93 1014 13 N 0
Oggi h: 05:36 foschia Foschia 14 14 100 1014 10 N 0
Oggi h: 05:27 foschia Foschia 13 13 100 1014 2 N 0
Oggi h: 05:03 foschia Foschia 14 13 93 1014 5 N 0
Oggi h: 04:56 foschia Foschia 15 14 93 1014 5 N 0
Oggi h: 03:56 sereno Sereno 16 16 100 1015 13 N 0
Oggi h: 02:56 sereno Sereno 18 16 88 1015 10 N 5.5
Oggi h: 01:56 sereno Sereno 18 16 88 1015 10 O 7.4
Oggi h: 00:56 sereno Sereno 19 16 82 1015 10 N 5.5
Ieri h: 23:56 sereno Sereno 19 17 88 1015 10 O 7.4
Ieri h: 22:56 sereno Sereno 19 16 82 1014 10 N 0
Ieri h: 21:56 sereno Sereno 21 16 73 1014 10 N 5.5
Ieri h: 20:56 sereno Sereno 23 15 60 1013 10 O/NO 13
Ieri h: 18:56 sereno Sereno 26 14 47 1011 10 O 18.5
Ieri h: 17:56 sereno Sereno 28 16 48 1011 10 O 22.2
Ieri h: 16:56 sereno Sereno 30 17 45 0 10 N 0
Ieri h: 15:56 sereno Sereno 0 0 27 0 10 N 0
Ieri h: 13:56 sereno Sereno 0 0 29 0 10 N 0
Ieri h: 12:56 sereno Sereno 31 18 45 0 10 N 0